sensor_id;sensor_type;location;lat;lon;timestamp;P1;durP1;ratioP1;P2;durP2;ratioP2
83143;SDS011;73035;43.768;2.230;2024-01-16T00:00:06;17.85;;;10.40;;
83143;SDS011;73035;43.768;2.230;2024-01-16T00:02:33;22.58;;;12.88;;
83143;SDS011;73035;43.768;2.230;2024-01-16T00:04:58;20.73;;;10.50;;
83143;SDS011;73035;43.768;2.230;2024-01-16T00:07:25;18.25;;;10.13;;
83143;SDS011;73035;43.768;2.230;2024-01-16T00:09:50;14.93;;;8.95;;
83143;SDS011;73035;43.768;2.230;2024-01-16T00:12:17;17.20;;;10.05;;
83143;SDS011;73035;43.768;2.230;2024-01-16T00:14:43;14.90;;;8.75;;
83143;SDS011;73035;43.768;2.230;2024-01-16T00:17:08;14.93;;;9.20;;
83143;SDS011;73035;43.768;2.230;2024-01-16T00:19:34;14.65;;;7.72;;
83143;SDS011;73035;43.768;2.230;2024-01-16T00:22:00;16.15;;;7.80;;
83143;SDS011;73035;43.768;2.230;2024-01-16T00:24:27;13.75;;;8.55;;
83143;SDS011;73035;43.768;2.230;2024-01-16T00:26:52;13.82;;;8.55;;
83143;SDS011;73035;43.768;2.230;2024-01-16T00:29:18;14.75;;;8.57;;
83143;SDS011;73035;43.768;2.230;2024-01-16T00:31:43;12.75;;;7.68;;
83143;SDS011;73035;43.768;2.230;2024-01-16T00:34:09;16.20;;;8.00;;
83143;SDS011;73035;43.768;2.230;2024-01-16T00:36:34;14.20;;;8.00;;
83143;SDS011;73035;43.768;2.230;2024-01-16T00:38:59;13.27;;;7.60;;
83143;SDS011;73035;43.768;2.230;2024-01-16T00:41:25;17.25;;;7.75;;
83143;SDS011;73035;43.768;2.230;2024-01-16T00:43:50;11.38;;;6.97;;
83143;SDS011;73035;43.768;2.230;2024-01-16T00:46:15;11.80;;;6.60;;
83143;SDS011;73035;43.768;2.230;2024-01-16T00:48:41;11.20;;;7.07;;
83143;SDS011;73035;43.768;2.230;2024-01-16T00:51:06;12.52;;;7.10;;
83143;SDS011;73035;43.768;2.230;2024-01-16T00:53:31;11.32;;;6.75;;
83143;SDS011;73035;43.768;2.230;2024-01-16T00:55:57;13.10;;;8.18;;
83143;SDS011;73035;43.768;2.230;2024-01-16T00:58:22;14.02;;;8.43;;
83143;SDS011;73035;43.768;2.230;2024-01-16T01:00:48;12.55;;;7.72;;
83143;SDS011;73035;43.768;2.230;2024-01-16T01:03:13;14.20;;;8.32;;
83143;SDS011;73035;43.768;2.230;2024-01-16T01:05:39;12.77;;;8.68;;
83143;SDS011;73035;43.768;2.230;2024-01-16T01:08:04;25.35;;;15.68;;
83143;SDS011;73035;43.768;2.230;2024-01-16T01:10:30;22.90;;;12.18;;
83143;SDS011;73035;43.768;2.230;2024-01-16T01:12:55;13.60;;;8.98;;
83143;SDS011;73035;43.768;2.230;2024-01-16T01:15:20;14.15;;;8.32;;
83143;SDS011;73035;43.768;2.230;2024-01-16T01:17:48;12.68;;;8.00;;
83143;SDS011;73035;43.768;2.230;2024-01-16T01:20:14;11.43;;;7.05;;
83143;SDS011;73035;43.768;2.230;2024-01-16T01:22:39;11.90;;;7.07;;
83143;SDS011;73035;43.768;2.230;2024-01-16T01:25:05;8.35;;;6.07;;
83143;SDS011;73035;43.768;2.230;2024-01-16T01:27:31;11.13;;;7.38;;
83143;SDS011;73035;43.768;2.230;2024-01-16T01:29:57;10.73;;;6.70;;
83143;SDS011;73035;43.768;2.230;2024-01-16T01:32:23;10.73;;;7.07;;
83143;SDS011;73035;43.768;2.230;2024-01-16T01:34:48;10.00;;;7.10;;
83143;SDS011;73035;43.768;2.230;2024-01-16T01:37:13;11.02;;;6.30;;
83143;SDS011;73035;43.768;2.230;2024-01-16T01:39:39;8.23;;;5.78;;
83143;SDS011;73035;43.768;2.230;2024-01-16T01:42:05;8.68;;;5.93;;
83143;SDS011;73035;43.768;2.230;2024-01-16T01:44:30;9.23;;;5.60;;
83143;SDS011;73035;43.768;2.230;2024-01-16T01:46:55;9.68;;;6.22;;
83143;SDS011;73035;43.768;2.230;2024-01-16T01:49:21;10.10;;;6.60;;
83143;SDS011;73035;43.768;2.230;2024-01-16T01:51:48;8.93;;;5.65;;
83143;SDS011;73035;43.768;2.230;2024-01-16T01:56:41;5.60;;;2.97;;
83143;SDS011;73035;43.768;2.230;2024-01-16T01:59:09;5.57;;;3.50;;
83143;SDS011;73035;43.768;2.230;2024-01-16T02:01:35;8.85;;;5.72;;
83143;SDS011;73035;43.768;2.230;2024-01-16T02:04:00;5.97;;;3.90;;
83143;SDS011;73035;43.768;2.230;2024-01-16T02:06:27;6.00;;;4.00;;
83143;SDS011;73035;43.768;2.230;2024-01-16T02:08:52;4.22;;;2.63;;
83143;SDS011;73035;43.768;2.230;2024-01-16T02:11:18;4.65;;;3.28;;
83143;SDS011;73035;43.768;2.230;2024-01-16T02:13:43;3.80;;;2.20;;
83143;SDS011;73035;43.768;2.230;2024-01-16T02:16:19;4.72;;;2.55;;
83143;SDS011;73035;43.768;2.230;2024-01-16T02:18:47;4.53;;;3.00;;
83143;SDS011;73035;43.768;2.230;2024-01-16T02:21:22;5.45;;;3.10;;
83143;SDS011;73035;43.768;2.230;2024-01-16T02:23:50;2.95;;;2.10;;
83143;SDS011;73035;43.768;2.230;2024-01-16T02:26:17;4.82;;;3.28;;
83143;SDS011;73035;43.768;2.230;2024-01-16T02:28:43;3.92;;;2.45;;
83143;SDS011;73035;43.768;2.230;2024-01-16T02:31:08;4.07;;;2.50;;
83143;SDS011;73035;43.768;2.230;2024-01-16T02:33:34;4.30;;;2.13;;
83143;SDS011;73035;43.768;2.230;2024-01-16T02:38:24;3.80;;;2.40;;
83143;SDS011;73035;43.768;2.230;2024-01-16T02:40:50;3.95;;;2.80;;
83143;SDS011;73035;43.768;2.230;2024-01-16T02:43:16;3.47;;;2.28;;
83143;SDS011;73035;43.768;2.230;2024-01-16T02:45:41;4.22;;;2.90;;
83143;SDS011;73035;43.768;2.230;2024-01-16T02:48:07;3.85;;;2.40;;
83143;SDS011;73035;43.768;2.230;2024-01-16T02:50:32;5.32;;;2.78;;
83143;SDS011;73035;43.768;2.230;2024-01-16T02:52:58;3.00;;;2.05;;
83143;SDS011;73035;43.768;2.230;2024-01-16T02:55:23;4.18;;;2.60;;
83143;SDS011;73035;43.768;2.230;2024-01-16T02:57:49;4.13;;;2.33;;
83143;SDS011;73035;43.768;2.230;2024-01-16T03:00:15;3.65;;;2.55;;
83143;SDS011;73035;43.768;2.230;2024-01-16T03:02:41;2.58;;;1.80;;
83143;SDS011;73035;43.768;2.230;2024-01-16T03:05:06;2.72;;;1.75;;
83143;SDS011;73035;43.768;2.230;2024-01-16T03:07:32;3.28;;;1.95;;
83143;SDS011;73035;43.768;2.230;2024-01-16T03:09:57;3.25;;;2.40;;
83143;SDS011;73035;43.768;2.230;2024-01-16T03:12:23;3.53;;;2.05;;
83143;SDS011;73035;43.768;2.230;2024-01-16T03:14:48;2.30;;;1.33;;
83143;SDS011;73035;43.768;2.230;2024-01-16T03:17:14;2.28;;;1.15;;
83143;SDS011;73035;43.768;2.230;2024-01-16T03:19:39;2.15;;;1.30;;
83143;SDS011;73035;43.768;2.230;2024-01-16T03:22:04;2.42;;;1.38;;
83143;SDS011;73035;43.768;2.230;2024-01-16T03:24:30;2.80;;;1.80;;
83143;SDS011;73035;43.768;2.230;2024-01-16T03:29:21;3.72;;;1.70;;
83143;SDS011;73035;43.768;2.230;2024-01-16T03:31:46;2.05;;;1.30;;
83143;SDS011;73035;43.768;2.230;2024-01-16T03:34:13;2.25;;;1.15;;
83143;SDS011;73035;43.768;2.230;2024-01-16T03:36:38;1.40;;;0.82;;
83143;SDS011;73035;43.768;2.230;2024-01-16T03:39:03;1.98;;;1.10;;
83143;SDS011;73035;43.768;2.230;2024-01-16T03:43:54;2.57;;;1.57;;
83143;SDS011;73035;43.768;2.230;2024-01-16T03:46:22;2.33;;;1.58;;
83143;SDS011;73035;43.768;2.230;2024-01-16T03:48:48;2.67;;;1.70;;
83143;SDS011;73035;43.768;2.230;2024-01-16T03:51:13;2.90;;;2.08;;
83143;SDS011;73035;43.768;2.230;2024-01-16T03:53:44;4.22;;;2.15;;
83143;SDS011;73035;43.768;2.230;2024-01-16T03:56:09;5.10;;;3.00;;
83143;SDS011;73035;43.768;2.230;2024-01-16T04:01:00;2.93;;;2.23;;
83143;SDS011;73035;43.768;2.230;2024-01-16T04:03:25;3.72;;;2.50;;
83143;SDS011;73035;43.768;2.230;2024-01-16T04:08:16;4.37;;;2.47;;
83143;SDS011;73035;43.768;2.230;2024-01-16T04:13:07;5.60;;;3.03;;
83143;SDS011;73035;43.768;2.230;2024-01-16T04:17:58;4.43;;;2.97;;
83143;SDS011;73035;43.768;2.230;2024-01-16T04:20:23;5.35;;;3.28;;
83143;SDS011;73035;43.768;2.230;2024-01-16T04:22:48;4.90;;;2.95;;
83143;SDS011;73035;43.768;2.230;2024-01-16T04:25:14;4.55;;;3.13;;
83143;SDS011;73035;43.768;2.230;2024-01-16T04:27:39;5.18;;;3.10;;
83143;SDS011;73035;43.768;2.230;2024-01-16T04:30:05;7.20;;;3.40;;
83143;SDS011;73035;43.768;2.230;2024-01-16T04:34:56;11.30;;;7.00;;
83143;SDS011;73035;43.768;2.230;2024-01-16T04:37:21;7.65;;;5.18;;
83143;SDS011;73035;43.768;2.230;2024-01-16T04:39:47;9.20;;;6.03;;
83143;SDS011;73035;43.768;2.230;2024-01-16T04:42:12;7.53;;;4.97;;
83143;SDS011;73035;43.768;2.230;2024-01-16T04:47:03;6.57;;;3.40;;
83143;SDS011;73035;43.768;2.230;2024-01-16T04:49:28;4.90;;;3.47;;
83143;SDS011;73035;43.768;2.230;2024-01-16T04:51:54;4.40;;;3.10;;
83143;SDS011;73035;43.768;2.230;2024-01-16T04:54:19;4.32;;;3.15;;
83143;SDS011;73035;43.768;2.230;2024-01-16T04:56:44;3.90;;;2.67;;
83143;SDS011;73035;43.768;2.230;2024-01-16T04:59:10;5.35;;;2.63;;
83143;SDS011;73035;43.768;2.230;2024-01-16T05:01:35;3.88;;;2.65;;
83143;SDS011;73035;43.768;2.230;2024-01-16T05:04:01;5.88;;;2.58;;
83143;SDS011;73035;43.768;2.230;2024-01-16T05:06:26;3.67;;;2.25;;
83143;SDS011;73035;43.768;2.230;2024-01-16T05:08:51;4.30;;;2.83;;
83143;SDS011;73035;43.768;2.230;2024-01-16T05:11:18;4.57;;;2.70;;
83143;SDS011;73035;43.768;2.230;2024-01-16T05:13:43;4.15;;;2.65;;
83143;SDS011;73035;43.768;2.230;2024-01-16T05:16:09;3.97;;;2.63;;
83143;SDS011;73035;43.768;2.230;2024-01-16T05:18:34;3.85;;;2.45;;
83143;SDS011;73035;43.768;2.230;2024-01-16T05:21:00;3.78;;;2.67;;
83143;SDS011;73035;43.768;2.230;2024-01-16T05:23:25;6.25;;;2.75;;
83143;SDS011;73035;43.768;2.230;2024-01-16T05:25:51;4.18;;;2.50;;
83143;SDS011;73035;43.768;2.230;2024-01-16T05:30:41;3.53;;;1.90;;
83143;SDS011;73035;43.768;2.230;2024-01-16T05:33:07;3.92;;;2.20;;
83143;SDS011;73035;43.768;2.230;2024-01-16T05:37:59;2.40;;;1.65;;
83143;SDS011;73035;43.768;2.230;2024-01-16T05:40:24;4.18;;;1.92;;
83143;SDS011;73035;43.768;2.230;2024-01-16T05:45:15;2.67;;;1.50;;
83143;SDS011;73035;43.768;2.230;2024-01-16T05:47:41;3.38;;;1.50;;
83143;SDS011;73035;43.768;2.230;2024-01-16T05:50:06;3.67;;;1.40;;
83143;SDS011;73035;43.768;2.230;2024-01-16T05:54:57;3.80;;;1.50;;
83143;SDS011;73035;43.768;2.230;2024-01-16T05:57:24;2.92;;;2.28;;
83143;SDS011;73035;43.768;2.230;2024-01-16T05:59:50;3.45;;;2.38;;
83143;SDS011;73035;43.768;2.230;2024-01-16T06:04:41;2.90;;;1.60;;
83143;SDS011;73035;43.768;2.230;2024-01-16T06:09:40;2.03;;;1.30;;
83143;SDS011;73035;43.768;2.230;2024-01-16T06:12:05;3.13;;;1.63;;
83143;SDS011;73035;43.768;2.230;2024-01-16T06:14:32;2.63;;;1.52;;
83143;SDS011;73035;43.768;2.230;2024-01-16T06:19:23;4.10;;;1.97;;
83143;SDS011;73035;43.768;2.230;2024-01-16T06:24:13;2.87;;;1.50;;
83143;SDS011;73035;43.768;2.230;2024-01-16T06:29:04;3.97;;;2.47;;
83143;SDS011;73035;43.768;2.230;2024-01-16T06:33:54;3.90;;;3.00;;
83143;SDS011;73035;43.768;2.230;2024-01-16T06:38:46;4.50;;;2.38;;
83143;SDS011;73035;43.768;2.230;2024-01-16T06:43:36;4.50;;;2.33;;
83143;SDS011;73035;43.768;2.230;2024-01-16T06:48:27;4.20;;;2.85;;
83143;SDS011;73035;43.768;2.230;2024-01-16T06:50:53;8.13;;;4.28;;
83143;SDS011;73035;43.768;2.230;2024-01-16T06:53:18;6.03;;;3.35;;
83143;SDS011;73035;43.768;2.230;2024-01-16T06:55:43;8.02;;;4.28;;
83143;SDS011;73035;43.768;2.230;2024-01-16T07:00:35;4.70;;;2.85;;
83143;SDS011;73035;43.768;2.230;2024-01-16T07:03:00;4.00;;;2.83;;
83143;SDS011;73035;43.768;2.230;2024-01-16T07:05:27;3.78;;;2.53;;
83143;SDS011;73035;43.768;2.230;2024-01-16T07:07:54;4.00;;;3.08;;
83143;SDS011;73035;43.768;2.230;2024-01-16T07:10:19;4.30;;;3.20;;
83143;SDS011;73035;43.768;2.230;2024-01-16T07:12:47;4.13;;;3.40;;
83143;SDS011;73035;43.768;2.230;2024-01-16T07:15:14;4.72;;;2.92;;
83143;SDS011;73035;43.768;2.230;2024-01-16T07:17:40;5.93;;;3.15;;
83143;SDS011;73035;43.768;2.230;2024-01-16T07:20:06;3.80;;;2.25;;
83143;SDS011;73035;43.768;2.230;2024-01-16T07:22:32;3.85;;;2.20;;
83143;SDS011;73035;43.768;2.230;2024-01-16T07:24:58;3.50;;;2.30;;
83143;SDS011;73035;43.768;2.230;2024-01-16T07:29:49;4.63;;;2.37;;
83143;SDS011;73035;43.768;2.230;2024-01-16T07:34:40;3.38;;;2.00;;
83143;SDS011;73035;43.768;2.230;2024-01-16T07:37:05;3.10;;;2.25;;
83143;SDS011;73035;43.768;2.230;2024-01-16T07:41:56;12.43;;;3.67;;
83143;SDS011;73035;43.768;2.230;2024-01-16T07:46:47;3.10;;;2.00;;
83143;SDS011;73035;43.768;2.230;2024-01-16T07:51:37;4.77;;;1.70;;
83143;SDS011;73035;43.768;2.230;2024-01-16T07:56:31;2.33;;;1.52;;
83143;SDS011;73035;43.768;2.230;2024-01-16T08:01:22;2.70;;;1.63;;
83143;SDS011;73035;43.768;2.230;2024-01-16T08:06:13;2.17;;;1.17;;
83143;SDS011;73035;43.768;2.230;2024-01-16T08:11:04;1.93;;;1.10;;
83143;SDS011;73035;43.768;2.230;2024-01-16T08:15:54;2.73;;;1.50;;
83143;SDS011;73035;43.768;2.230;2024-01-16T08:18:20;2.00;;;1.40;;
83143;SDS011;73035;43.768;2.230;2024-01-16T08:23:10;3.50;;;1.77;;
83143;SDS011;73035;43.768;2.230;2024-01-16T08:25:36;2.97;;;1.45;;
83143;SDS011;73035;43.768;2.230;2024-01-16T08:30:26;3.77;;;1.40;;
83143;SDS011;73035;43.768;2.230;2024-01-16T08:32:52;1.98;;;1.10;;
83143;SDS011;73035;43.768;2.230;2024-01-16T08:37:42;3.10;;;1.23;;
83143;SDS011;73035;43.768;2.230;2024-01-16T08:42:33;1.95;;;1.10;;
83143;SDS011;73035;43.768;2.230;2024-01-16T08:44:58;2.70;;;1.10;;
83143;SDS011;73035;43.768;2.230;2024-01-16T08:49:49;2.30;;;1.00;;
83143;SDS011;73035;43.768;2.230;2024-01-16T08:54:40;3.92;;;1.27;;
83143;SDS011;73035;43.768;2.230;2024-01-16T08:59:31;3.67;;;1.30;;
83143;SDS011;73035;43.768;2.230;2024-01-16T09:04:22;2.55;;;1.55;;
83143;SDS011;73035;43.768;2.230;2024-01-16T09:09:13;2.80;;;1.63;;
83143;SDS011;73035;43.768;2.230;2024-01-16T09:11:40;3.97;;;1.52;;
83143;SDS011;73035;43.768;2.230;2024-01-16T09:16:31;2.43;;;1.03;;
83143;SDS011;73035;43.768;2.230;2024-01-16T09:21:22;2.40;;;1.40;;
83143;SDS011;73035;43.768;2.230;2024-01-16T09:26:12;3.40;;;1.30;;
83143;SDS011;73035;43.768;2.230;2024-01-16T09:28:38;2.20;;;1.30;;
83143;SDS011;73035;43.768;2.230;2024-01-16T09:33:30;2.25;;;1.15;;
83143;SDS011;73035;43.768;2.230;2024-01-16T09:38:21;2.43;;;1.17;;
83143;SDS011;73035;43.768;2.230;2024-01-16T09:43:12;5.53;;;1.58;;
83143;SDS011;73035;43.768;2.230;2024-01-16T09:48:03;2.85;;;1.27;;
83143;SDS011;73035;43.768;2.230;2024-01-16T09:50:30;2.83;;;1.20;;
83143;SDS011;73035;43.768;2.230;2024-01-16T09:55:21;2.15;;;1.20;;
83143;SDS011;73035;43.768;2.230;2024-01-16T10:00:11;3.23;;;1.53;;
83143;SDS011;73035;43.768;2.230;2024-01-16T10:05:04;2.42;;;1.20;;
83143;SDS011;73035;43.768;2.230;2024-01-16T10:09:58;5.23;;;1.93;;
83143;SDS011;73035;43.768;2.230;2024-01-16T10:12:23;3.90;;;1.13;;
83143;SDS011;73035;43.768;2.230;2024-01-16T10:17:16;2.63;;;1.30;;
83143;SDS011;73035;43.768;2.230;2024-01-16T10:19:47;2.30;;;1.35;;
83143;SDS011;73035;43.768;2.230;2024-01-16T10:22:20;2.20;;;1.40;;
83143;SDS011;73035;43.768;2.230;2024-01-16T10:24:50;5.80;;;1.40;;
83143;SDS011;73035;43.768;2.230;2024-01-16T10:27:29;1.85;;;1.23;;
83143;SDS011;73035;43.768;2.230;2024-01-16T10:29:56;3.55;;;1.40;;
83143;SDS011;73035;43.768;2.230;2024-01-16T10:32:43;2.58;;;0.90;;
83143;SDS011;73035;43.768;2.230;2024-01-16T10:35:11;2.75;;;1.20;;
83143;SDS011;73035;43.768;2.230;2024-01-16T10:37:47;1.48;;;0.80;;
83143;SDS011;73035;43.768;2.230;2024-01-16T10:40:20;2.47;;;1.30;;
83143;SDS011;73035;43.768;2.230;2024-01-16T10:42:57;2.47;;;0.90;;
83143;SDS011;73035;43.768;2.230;2024-01-16T10:45:23;2.97;;;0.80;;
83143;SDS011;73035;43.768;2.230;2024-01-16T10:50:41;3.75;;;1.55;;
83143;SDS011;73035;43.768;2.230;2024-01-16T10:55:34;1.90;;;1.00;;
83143;SDS011;73035;43.768;2.230;2024-01-16T10:58:06;3.28;;;1.17;;
83143;SDS011;73035;43.768;2.230;2024-01-16T11:03:04;2.43;;;1.23;;
83143;SDS011;73035;43.768;2.230;2024-01-16T11:05:31;3.42;;;1.25;;
83143;SDS011;73035;43.768;2.230;2024-01-16T11:07:58;3.63;;;1.35;;
83143;SDS011;73035;43.768;2.230;2024-01-16T11:10:26;3.33;;;1.40;;
83143;SDS011;73035;43.768;2.230;2024-01-16T11:12:52;3.97;;;1.30;;
83143;SDS011;73035;43.768;2.230;2024-01-16T11:17:43;4.93;;;1.30;;
83143;SDS011;73035;43.768;2.230;2024-01-16T11:20:10;4.38;;;1.58;;
83143;SDS011;73035;43.768;2.230;2024-01-16T11:22:39;4.25;;;1.30;;
83143;SDS011;73035;43.768;2.230;2024-01-16T11:25:16;1.90;;;1.00;;
83143;SDS011;73035;43.768;2.230;2024-01-16T11:27:42;2.10;;;1.20;;
83143;SDS011;73035;43.768;2.230;2024-01-16T11:30:09;2.22;;;1.33;;
83143;SDS011;73035;43.768;2.230;2024-01-16T11:35:03;1.30;;;1.00;;
83143;SDS011;73035;43.768;2.230;2024-01-16T11:37:30;3.08;;;1.20;;
83143;SDS011;73035;43.768;2.230;2024-01-16T11:42:41;2.28;;;1.20;;
83143;SDS011;73035;43.768;2.230;2024-01-16T11:45:08;4.45;;;1.45;;
83143;SDS011;73035;43.768;2.230;2024-01-16T11:48:09;2.47;;;1.35;;
83143;SDS011;73035;43.768;2.230;2024-01-16T11:50:41;1.67;;;0.93;;
83143;SDS011;73035;43.768;2.230;2024-01-16T11:53:07;3.42;;;1.23;;
83143;SDS011;73035;43.768;2.230;2024-01-16T11:55:33;1.83;;;1.15;;
83143;SDS011;73035;43.768;2.230;2024-01-16T12:01:03;3.15;;;1.10;;
83143;SDS011;73035;43.768;2.230;2024-01-16T12:03:30;2.95;;;1.45;;
83143;SDS011;73035;43.768;2.230;2024-01-16T12:05:56;3.72;;;1.75;;
83143;SDS011;73035;43.768;2.230;2024-01-16T12:08:22;10.90;;;6.53;;
83143;SDS011;73035;43.768;2.230;2024-01-16T12:10:48;5.07;;;2.70;;
83143;SDS011;73035;43.768;2.230;2024-01-16T12:13:13;3.38;;;1.60;;
83143;SDS011;73035;43.768;2.230;2024-01-16T12:15:39;3.42;;;1.88;;
83143;SDS011;73035;43.768;2.230;2024-01-16T12:18:04;3.55;;;1.30;;
83143;SDS011;73035;43.768;2.230;2024-01-16T12:20:31;11.82;;;7.82;;
83143;SDS011;73035;43.768;2.230;2024-01-16T12:22:57;7.88;;;4.43;;
83143;SDS011;73035;43.768;2.230;2024-01-16T12:25:27;3.15;;;2.00;;
83143;SDS011;73035;43.768;2.230;2024-01-16T12:28:02;6.43;;;4.65;;
83143;SDS011;73035;43.768;2.230;2024-01-16T12:35:38;3.22;;;1.60;;
83143;SDS011;73035;43.768;2.230;2024-01-16T12:38:04;4.50;;;1.35;;
83143;SDS011;73035;43.768;2.230;2024-01-16T12:40:34;2.10;;;1.15;;
83143;SDS011;73035;43.768;2.230;2024-01-16T12:43:05;3.00;;;1.60;;
83143;SDS011;73035;43.768;2.230;2024-01-16T12:45:34;2.30;;;1.10;;
83143;SDS011;73035;43.768;2.230;2024-01-16T12:47:59;5.10;;;1.20;;
83143;SDS011;73035;43.768;2.230;2024-01-16T12:50:26;2.05;;;0.80;;
83143;SDS011;73035;43.768;2.230;2024-01-16T12:53:04;1.48;;;0.88;;
83143;SDS011;73035;43.768;2.230;2024-01-16T12:55:33;5.65;;;1.30;;
83143;SDS011;73035;43.768;2.230;2024-01-16T13:00:37;3.15;;;1.15;;
83143;SDS011;73035;43.768;2.230;2024-01-16T13:03:04;4.43;;;1.70;;
83143;SDS011;73035;43.768;2.230;2024-01-16T13:05:30;1.88;;;1.00;;
83143;SDS011;73035;43.768;2.230;2024-01-16T13:08:02;5.05;;;1.90;;
83143;SDS011;73035;43.768;2.230;2024-01-16T13:10:31;4.60;;;1.50;;
83143;SDS011;73035;43.768;2.230;2024-01-16T13:16:19;5.22;;;2.10;;
83143;SDS011;73035;43.768;2.230;2024-01-16T13:18:45;3.65;;;2.17;;
83143;SDS011;73035;43.768;2.230;2024-01-16T13:21:10;4.72;;;1.70;;
83143;SDS011;73035;43.768;2.230;2024-01-16T13:23:35;3.47;;;1.50;;
83143;SDS011;73035;43.768;2.230;2024-01-16T13:26:01;2.10;;;1.35;;
83143;SDS011;73035;43.768;2.230;2024-01-16T13:28:29;2.55;;;0.98;;
83143;SDS011;73035;43.768;2.230;2024-01-16T13:30:55;8.80;;;2.85;;
83143;SDS011;73035;43.768;2.230;2024-01-16T13:33:22;6.10;;;1.83;;
83143;SDS011;73035;43.768;2.230;2024-01-16T13:35:48;5.95;;;1.33;;
83143;SDS011;73035;43.768;2.230;2024-01-16T13:38:13;5.38;;;1.30;;
83143;SDS011;73035;43.768;2.230;2024-01-16T13:40:44;2.42;;;1.40;;
83143;SDS011;73035;43.768;2.230;2024-01-16T13:43:09;2.30;;;1.58;;
83143;SDS011;73035;43.768;2.230;2024-01-16T13:45:36;8.63;;;3.60;;
83143;SDS011;73035;43.768;2.230;2024-01-16T13:48:02;5.60;;;2.42;;
83143;SDS011;73035;43.768;2.230;2024-01-16T13:50:29;4.57;;;1.42;;
83143;SDS011;73035;43.768;2.230;2024-01-16T13:52:54;3.35;;;1.52;;
83143;SDS011;73035;43.768;2.230;2024-01-16T13:55:20;5.03;;;1.60;;
83143;SDS011;73035;43.768;2.230;2024-01-16T13:57:46;4.82;;;2.30;;
83143;SDS011;73035;43.768;2.230;2024-01-16T14:00:12;3.38;;;1.77;;
83143;SDS011;73035;43.768;2.230;2024-01-16T14:02:41;7.13;;;1.83;;
83143;SDS011;73035;43.768;2.230;2024-01-16T14:05:11;2.10;;;0.98;;
83143;SDS011;73035;43.768;2.230;2024-01-16T14:07:40;3.53;;;1.10;;
83143;SDS011;73035;43.768;2.230;2024-01-16T14:10:08;4.53;;;1.70;;
83143;SDS011;73035;43.768;2.230;2024-01-16T14:12:41;3.78;;;1.60;;
83143;SDS011;73035;43.768;2.230;2024-01-16T14:15:10;3.38;;;1.45;;
83143;SDS011;73035;43.768;2.230;2024-01-16T14:17:47;6.05;;;1.60;;
83143;SDS011;73035;43.768;2.230;2024-01-16T14:20:14;4.57;;;1.48;;
83143;SDS011;73035;43.768;2.230;2024-01-16T14:22:40;3.03;;;1.40;;
83143;SDS011;73035;43.768;2.230;2024-01-16T14:25:08;4.68;;;1.55;;
83143;SDS011;73035;43.768;2.230;2024-01-16T14:27:37;10.07;;;2.20;;
83143;SDS011;73035;43.768;2.230;2024-01-16T14:30:07;2.60;;;1.40;;
83143;SDS011;73035;43.768;2.230;2024-01-16T14:32:36;8.30;;;1.70;;
83143;SDS011;73035;43.768;2.230;2024-01-16T14:35:05;8.07;;;2.17;;
83143;SDS011;73035;43.768;2.230;2024-01-16T14:37:32;5.13;;;1.67;;
83143;SDS011;73035;43.768;2.230;2024-01-16T14:39:59;3.10;;;2.38;;
83143;SDS011;73035;43.768;2.230;2024-01-16T14:42:28;3.85;;;2.15;;
83143;SDS011;73035;43.768;2.230;2024-01-16T14:44:53;5.20;;;2.22;;
83143;SDS011;73035;43.768;2.230;2024-01-16T14:47:19;5.57;;;3.25;;
83143;SDS011;73035;43.768;2.230;2024-01-16T14:52:10;7.93;;;3.40;;
83143;SDS011;73035;43.768;2.230;2024-01-16T14:54:36;3.03;;;1.55;;
83143;SDS011;73035;43.768;2.230;2024-01-16T14:57:01;3.53;;;1.90;;
83143;SDS011;73035;43.768;2.230;2024-01-16T15:01:52;3.60;;;1.50;;
83143;SDS011;73035;43.768;2.230;2024-01-16T15:04:19;2.75;;;1.50;;
83143;SDS011;73035;43.768;2.230;2024-01-16T15:09:10;5.10;;;1.63;;
83143;SDS011;73035;43.768;2.230;2024-01-16T15:11:37;6.45;;;2.78;;
83143;SDS011;73035;43.768;2.230;2024-01-16T15:16:28;8.03;;;2.00;;
83143;SDS011;73035;43.768;2.230;2024-01-16T15:18:54;6.63;;;1.70;;
83143;SDS011;73035;43.768;2.230;2024-01-16T15:21:21;2.78;;;1.30;;
83143;SDS011;73035;43.768;2.230;2024-01-16T15:26:12;4.00;;;1.38;;
83143;SDS011;73035;43.768;2.230;2024-01-16T15:28:43;4.40;;;1.88;;
83143;SDS011;73035;43.768;2.230;2024-01-16T15:33:34;5.22;;;1.80;;
83143;SDS011;73035;43.768;2.230;2024-01-16T15:38:26;3.97;;;1.95;;
83143;SDS011;73035;43.768;2.230;2024-01-16T15:40:51;14.32;;;7.07;;
83143;SDS011;73035;43.768;2.230;2024-01-16T15:43:17;6.75;;;3.13;;
83143;SDS011;73035;43.768;2.230;2024-01-16T15:48:09;5.20;;;2.08;;
83143;SDS011;73035;43.768;2.230;2024-01-16T15:53:00;9.27;;;2.40;;
83143;SDS011;73035;43.768;2.230;2024-01-16T15:57:50;7.77;;;2.83;;
83143;SDS011;73035;43.768;2.230;2024-01-16T16:00:16;4.88;;;2.22;;
83143;SDS011;73035;43.768;2.230;2024-01-16T16:05:11;4.30;;;1.70;;
83143;SDS011;73035;43.768;2.230;2024-01-16T16:07:36;3.70;;;1.50;;
83143;SDS011;73035;43.768;2.230;2024-01-16T16:10:02;2.15;;;1.25;;
83143;SDS011;73035;43.768;2.230;2024-01-16T16:12:27;4.53;;;1.80;;
83143;SDS011;73035;43.768;2.230;2024-01-16T16:17:18;7.90;;;2.20;;
83143;SDS011;73035;43.768;2.230;2024-01-16T16:19:43;4.72;;;2.78;;
83143;SDS011;73035;43.768;2.230;2024-01-16T16:22:10;6.03;;;2.30;;
83143;SDS011;73035;43.768;2.230;2024-01-16T16:27:01;5.13;;;2.40;;
83143;SDS011;73035;43.768;2.230;2024-01-16T16:29:29;7.47;;;2.58;;
83143;SDS011;73035;43.768;2.230;2024-01-16T16:31:54;3.47;;;1.83;;
83143;SDS011;73035;43.768;2.230;2024-01-16T16:34:19;3.78;;;2.03;;
83143;SDS011;73035;43.768;2.230;2024-01-16T16:36:45;18.05;;;9.40;;
83143;SDS011;73035;43.768;2.230;2024-01-16T16:39:10;17.33;;;9.07;;
83143;SDS011;73035;43.768;2.230;2024-01-16T16:41:39;13.88;;;7.35;;
83143;SDS011;73035;43.768;2.230;2024-01-16T16:44:05;5.90;;;3.50;;
83143;SDS011;73035;43.768;2.230;2024-01-16T16:48:57;4.85;;;2.80;;
83143;SDS011;73035;43.768;2.230;2024-01-16T16:53:49;21.02;;;11.10;;
83143;SDS011;73035;43.768;2.230;2024-01-16T16:56:16;10.10;;;5.32;;
83143;SDS011;73035;43.768;2.230;2024-01-16T16:58:42;11.40;;;4.82;;
83143;SDS011;73035;43.768;2.230;2024-01-16T17:01:09;4.47;;;2.97;;
83143;SDS011;73035;43.768;2.230;2024-01-16T17:03:36;4.28;;;1.98;;
83143;SDS011;73035;43.768;2.230;2024-01-16T17:06:02;6.78;;;2.00;;
83143;SDS011;73035;43.768;2.230;2024-01-16T17:08:31;4.70;;;1.85;;
83143;SDS011;73035;43.768;2.230;2024-01-16T17:10:57;7.00;;;2.40;;
83143;SDS011;73035;43.768;2.230;2024-01-16T17:13:24;16.15;;;6.25;;
83143;SDS011;73035;43.768;2.230;2024-01-16T17:18:15;10.47;;;6.60;;
83143;SDS011;73035;43.768;2.230;2024-01-16T17:23:05;44.72;;;24.75;;
83143;SDS011;73035;43.768;2.230;2024-01-16T17:25:32;23.23;;;11.82;;
83143;SDS011;73035;43.768;2.230;2024-01-16T17:30:22;82.77;;;44.07;;
83143;SDS011;73035;43.768;2.230;2024-01-16T17:35:13;29.53;;;15.60;;
83143;SDS011;73035;43.768;2.230;2024-01-16T17:37:41;26.27;;;17.27;;
83143;SDS011;73035;43.768;2.230;2024-01-16T17:42:40;18.77;;;9.85;;
83143;SDS011;73035;43.768;2.230;2024-01-16T17:45:05;16.75;;;8.48;;
83143;SDS011;73035;43.768;2.230;2024-01-16T17:47:34;14.75;;;8.07;;
83143;SDS011;73035;43.768;2.230;2024-01-16T17:50:00;17.15;;;10.85;;
83143;SDS011;73035;43.768;2.230;2024-01-16T17:54:50;9.52;;;4.93;;
83143;SDS011;73035;43.768;2.230;2024-01-16T17:57:16;5.95;;;3.50;;
83143;SDS011;73035;43.768;2.230;2024-01-16T18:02:07;8.18;;;3.15;;
83143;SDS011;73035;43.768;2.230;2024-01-16T18:04:37;6.22;;;2.75;;
83143;SDS011;73035;43.768;2.230;2024-01-16T18:07:05;7.55;;;3.30;;
83143;SDS011;73035;43.768;2.230;2024-01-16T18:11:59;5.88;;;2.33;;
83143;SDS011;73035;43.768;2.230;2024-01-16T18:14:25;5.32;;;2.63;;
83143;SDS011;73035;43.768;2.230;2024-01-16T18:16:51;10.35;;;3.75;;
83143;SDS011;73035;43.768;2.230;2024-01-16T18:19:17;8.73;;;3.47;;